New Philadelphia, Pennsylvania
Current Conditions -  °F | °C
As of 1:55 AM on Thursday 23 Oct 2014 (Local Time) from KHZL Reporting Station
Light Rain Light Rain  
Wind Chill: 39°   Ceiling: 500
Heat Index: 45°   Visibility: 10mi
Dew Point: 43°   Wind: 12mph
Humidity: 93%   Direction: 330°NNW
Pressure: 29.89"   Gusts: 18mph
Location:  40.72°N, 76.12°W
Report Text: KHZL 230555Z AUTO 33010G16KT 10SM -RA OVC005 07/06 A2989 RMK AO2
Loading
Personal Weather Stations






























Interactive Weather Map
Tropical Storm Tracking
New forecast layout! Learn more

10-Day Weather Forecast

Advertisements
Track Severe Weather on mobile